sensor_id;sensor_type;location;lat;lon;timestamp;pressure;altitude;pressure_sealevel;temperature;humidity
10008;BME280;5043;41.766;26.204;2023-09-30T00:00:46;101110.66;;;17.76;72.23
10008;BME280;5043;41.766;26.204;2023-09-30T00:03:12;101119.66;;;17.75;72.39
10008;BME280;5043;41.766;26.204;2023-09-30T00:05:37;101124.03;;;17.76;72.39
10008;BME280;5043;41.766;26.204;2023-09-30T00:08:04;101108.84;;;17.77;72.42
10008;BME280;5043;41.766;26.204;2023-09-30T00:10:30;101088.66;;;17.65;72.40
10008;BME280;5043;41.766;26.204;2023-09-30T00:12:56;101063.56;;;17.48;72.65
10008;BME280;5043;41.766;26.204;2023-09-30T00:15:21;101115.75;;;17.70;72.83
10008;BME280;5043;41.766;26.204;2023-09-30T00:17:47;101118.16;;;17.54;73.83
10008;BME280;5043;41.766;26.204;2023-09-30T00:20:12;101089.97;;;17.42;74.19
10008;BME280;5043;41.766;26.204;2023-09-30T00:22:40;101112.69;;;17.46;74.47
10008;BME280;5043;41.766;26.204;2023-09-30T00:25:07;101106.28;;;17.29;74.69
10008;BME280;5043;41.766;26.204;2023-09-30T00:27:32;101105.72;;;17.26;75.14
10008;BME280;5043;41.766;26.204;2023-09-30T00:29:58;101090.03;;;17.13;75.79
10008;BME280;5043;41.766;26.204;2023-09-30T00:32:23;101089.47;;;17.09;76.05
10008;BME280;5043;41.766;26.204;2023-09-30T00:34:49;101094.25;;;17.06;76.53
10008;BME280;5043;41.766;26.204;2023-09-30T00:37:14;101096.75;;;16.98;77.22
10008;BME280;5043;41.766;26.204;2023-09-30T00:39:40;101099.31;;;16.99;77.30
10008;BME280;5043;41.766;26.204;2023-09-30T00:42:05;101104.34;;;17.02;77.27
10008;BME280;5043;41.766;26.204;2023-09-30T00:44:31;101093.97;;;16.90;77.81
10008;BME280;5043;41.766;26.204;2023-09-30T00:46:56;101101.13;;;16.80;77.99
10008;BME280;5043;41.766;26.204;2023-09-30T00:49:25;101109.41;;;16.86;78.18
10008;BME280;5043;41.766;26.204;2023-09-30T00:51:52;101093.69;;;16.83;78.02
10008;BME280;5043;41.766;26.204;2023-09-30T00:54:18;101100.59;;;16.76;78.26
10008;BME280;5043;41.766;26.204;2023-09-30T00:56:45;101099.47;;;16.69;78.35
10008;BME280;5043;41.766;26.204;2023-09-30T00:59:13;101097.19;;;16.65;78.59
10008;BME280;5043;41.766;26.204;2023-09-30T01:01:40;101107.84;;;16.65;78.51
10008;BME280;5043;41.766;26.204;2023-09-30T01:04:05;101103.03;;;16.49;78.87
10008;BME280;5043;41.766;26.204;2023-09-30T01:06:31;101091.94;;;16.44;78.86
10008;BME280;5043;41.766;26.204;2023-09-30T01:08:57;101096.31;;;16.45;79.26
10008;BME280;5043;41.766;26.204;2023-09-30T01:11:22;101099.81;;;16.36;80.22
10008;BME280;5043;41.766;26.204;2023-09-30T01:13:48;101091.38;;;16.31;80.48
10008;BME280;5043;41.766;26.204;2023-09-30T01:16:14;101096.72;;;16.31;80.69
10008;BME280;5043;41.766;26.204;2023-09-30T01:18:40;101097.81;;;16.28;80.77
10008;BME280;5043;41.766;26.204;2023-09-30T01:21:08;101084.91;;;16.24;80.93
10008;BME280;5043;41.766;26.204;2023-09-30T01:23:34;101090.50;;;16.21;80.83
10008;BME280;5043;41.766;26.204;2023-09-30T01:26:08;101097.13;;;16.26;80.64
10008;BME280;5043;41.766;26.204;2023-09-30T01:28:35;101089.53;;;16.22;80.30
10008;BME280;5043;41.766;26.204;2023-09-30T01:31:04;101099.50;;;16.20;80.56
10008;BME280;5043;41.766;26.204;2023-09-30T01:33:31;101084.31;;;16.11;80.55
10008;BME280;5043;41.766;26.204;2023-09-30T01:35:57;101097.34;;;16.14;80.60
10008;BME280;5043;41.766;26.204;2023-09-30T01:38:23;101085.56;;;16.07;80.66
10008;BME280;5043;41.766;26.204;2023-09-30T01:40:49;101100.03;;;16.14;80.46
10008;BME280;5043;41.766;26.204;2023-09-30T01:43:15;101084.31;;;16.01;80.82
10008;BME280;5043;41.766;26.204;2023-09-30T01:45:41;101103.34;;;16.06;81.03
10008;BME280;5043;41.766;26.204;2023-09-30T01:48:08;101106.97;;;15.96;81.18
10008;BME280;5043;41.766;26.204;2023-09-30T01:50:40;101104.75;;;16.01;81.29
10008;BME280;5043;41.766;26.204;2023-09-30T01:53:08;101103.63;;;15.94;81.74
10008;BME280;5043;41.766;26.204;2023-09-30T01:55:37;101100.22;;;15.82;81.69
10008;BME280;5043;41.766;26.204;2023-09-30T01:58:02;101096.44;;;15.85;82.16
10008;BME280;5043;41.766;26.204;2023-09-30T02:00:28;101088.28;;;15.76;82.08
10008;BME280;5043;41.766;26.204;2023-09-30T02:02:57;101095.53;;;15.74;82.57
10008;BME280;5043;41.766;26.204;2023-09-30T02:05:23;101108.22;;;15.61;83.08
10008;BME280;5043;41.766;26.204;2023-09-30T02:07:49;101107.91;;;15.55;83.24
10008;BME280;5043;41.766;26.204;2023-09-30T02:10:16;101098.44;;;15.41;83.89
10008;BME280;5043;41.766;26.204;2023-09-30T02:12:44;101113.16;;;15.45;84.01
10008;BME280;5043;41.766;26.204;2023-09-30T02:15:10;101072.88;;;15.29;83.86
10008;BME280;5043;41.766;26.204;2023-09-30T02:17:36;101099.41;;;15.40;84.40
10008;BME280;5043;41.766;26.204;2023-09-30T02:20:05;101107.09;;;15.43;84.33
10008;BME280;5043;41.766;26.204;2023-09-30T02:22:38;101106.34;;;15.32;84.69
10008;BME280;5043;41.766;26.204;2023-09-30T02:25:03;101060.78;;;14.95;85.32
10008;BME280;5043;41.766;26.204;2023-09-30T02:27:32;101085.34;;;15.08;86.06
10008;BME280;5043;41.766;26.204;2023-09-30T02:29:57;101098.59;;;15.19;85.76
10008;BME280;5043;41.766;26.204;2023-09-30T02:32:23;101091.72;;;15.17;85.59
10008;BME280;5043;41.766;26.204;2023-09-30T02:34:49;101097.84;;;15.17;85.71
10008;BME280;5043;41.766;26.204;2023-09-30T02:37:15;101098.31;;;15.22;85.69
10008;BME280;5043;41.766;26.204;2023-09-30T02:39:42;101089.94;;;15.27;85.35
10008;BME280;5043;41.766;26.204;2023-09-30T02:42:08;101085.66;;;15.14;85.96
10008;BME280;5043;41.766;26.204;2023-09-30T02:44:34;101102.28;;;15.07;86.19
10008;BME280;5043;41.766;26.204;2023-09-30T02:46:59;101095.41;;;15.04;86.36
10008;BME280;5043;41.766;26.204;2023-09-30T02:49:24;101090.47;;;15.00;86.37
10008;BME280;5043;41.766;26.204;2023-09-30T02:51:50;101100.50;;;14.96;86.33
10008;BME280;5043;41.766;26.204;2023-09-30T02:54:16;101044.38;;;14.69;86.22
10008;BME280;5043;41.766;26.204;2023-09-30T02:56:41;101085.88;;;15.02;85.91
10008;BME280;5043;41.766;26.204;2023-09-30T02:59:08;101090.66;;;15.08;85.30
10008;BME280;5043;41.766;26.204;2023-09-30T03:01:33;101098.22;;;15.12;85.16
10008;BME280;5043;41.766;26.204;2023-09-30T03:03:59;101088.44;;;15.13;85.01
10008;BME280;5043;41.766;26.204;2023-09-30T03:06:25;101098.69;;;15.18;84.62
10008;BME280;5043;41.766;26.204;2023-09-30T03:08:50;101100.84;;;15.24;84.12
10008;BME280;5043;41.766;26.204;2023-09-30T03:11:17;101091.88;;;15.25;84.30
10008;BME280;5043;41.766;26.204;2023-09-30T03:13:45;101095.53;;;15.24;83.71
10008;BME280;5043;41.766;26.204;2023-09-30T03:16:10;101101.88;;;15.32;83.73
10008;BME280;5043;41.766;26.204;2023-09-30T03:18:36;101101.88;;;15.32;83.88
10008;BME280;5043;41.766;26.204;2023-09-30T03:21:02;101112.50;;;15.32;83.68
10008;BME280;5043;41.766;26.204;2023-09-30T03:23:33;101048.28;;;15.06;83.55
10008;BME280;5043;41.766;26.204;2023-09-30T03:25:59;101096.31;;;15.35;83.48
10008;BME280;5043;41.766;26.204;2023-09-30T03:28:28;101101.63;;;15.35;83.27
10008;BME280;5043;41.766;26.204;2023-09-30T03:30:54;101106.94;;;15.35;83.31
10008;BME280;5043;41.766;26.204;2023-09-30T03:33:19;101102.72;;;15.33;83.39
10008;BME280;5043;41.766;26.204;2023-09-30T03:35:45;101101.16;;;15.30;83.30
10008;BME280;5043;41.766;26.204;2023-09-30T03:38:11;101095.97;;;15.29;83.76
10008;BME280;5043;41.766;26.204;2023-09-30T03:40:39;101101.41;;;15.27;83.47
10008;BME280;5043;41.766;26.204;2023-09-30T03:43:05;101101.41;;;15.27;83.61
10008;BME280;5043;41.766;26.204;2023-09-30T03:45:35;101101.28;;;15.29;83.88
10008;BME280;5043;41.766;26.204;2023-09-30T03:48:05;101101.16;;;15.30;83.58
10008;BME280;5043;41.766;26.204;2023-09-30T03:50:31;101107.44;;;15.29;83.70
10008;BME280;5043;41.766;26.204;2023-09-30T03:53:02;101113.59;;;15.30;83.18
10008;BME280;5043;41.766;26.204;2023-09-30T03:55:28;101104.31;;;15.24;83.31
10008;BME280;5043;41.766;26.204;2023-09-30T03:57:55;101102.84;;;15.31;83.05
10008;BME280;5043;41.766;26.204;2023-09-30T04:00:20;101106.09;;;15.35;83.08
10008;BME280;5043;41.766;26.204;2023-09-30T04:02:46;101112.25;;;15.35;82.83
10008;BME280;5043;41.766;26.204;2023-09-30T04:05:15;101096.81;;;15.29;83.17
10008;BME280;5043;41.766;26.204;2023-09-30T04:07:42;101117.56;;;15.35;83.40
10008;BME280;5043;41.766;26.204;2023-09-30T04:10:09;101105.25;;;15.34;83.44
10008;BME280;5043;41.766;26.204;2023-09-30T04:12:35;101104.38;;;15.34;83.13
10008;BME280;5043;41.766;26.204;2023-09-30T04:15:01;101100.19;;;15.31;83.35
10008;BME280;5043;41.766;26.204;2023-09-30T04:17:26;101092.47;;;15.28;83.17
10008;BME280;5043;41.766;26.204;2023-09-30T04:19:53;101117.56;;;15.35;83.22
10008;BME280;5043;41.766;26.204;2023-09-30T04:22:18;101114.63;;;15.38;83.24
10008;BME280;5043;41.766;26.204;2023-09-30T04:24:45;101111.25;;;15.36;82.95
10008;BME280;5043;41.766;26.204;2023-09-30T04:27:11;101116.31;;;15.39;82.97
10008;BME280;5043;41.766;26.204;2023-09-30T04:29:36;101115.88;;;15.34;82.89
10008;BME280;5043;41.766;26.204;2023-09-30T04:32:03;101120.78;;;15.39;82.76
10008;BME280;5043;41.766;26.204;2023-09-30T04:34:30;101115.63;;;15.37;83.07
10008;BME280;5043;41.766;26.204;2023-09-30T04:36:55;101122.59;;;15.38;82.77
10008;BME280;5043;41.766;26.204;2023-09-30T04:39:21;101114.63;;;15.38;83.01
10008;BME280;5043;41.766;26.204;2023-09-30T04:41:47;101115.31;;;15.31;83.40
10008;BME280;5043;41.766;26.204;2023-09-30T04:44:13;101113.81;;;15.38;83.44
10008;BME280;5043;41.766;26.204;2023-09-30T04:46:38;101123.84;;;15.34;83.46
10008;BME280;5043;41.766;26.204;2023-09-30T04:49:12;101123.47;;;15.39;83.66
10008;BME280;5043;41.766;26.204;2023-09-30T04:51:38;101113.91;;;15.36;83.69
10008;BME280;5043;41.766;26.204;2023-09-30T04:54:05;101121.75;;;15.49;83.27
10008;BME280;5043;41.766;26.204;2023-09-30T04:56:32;101118.59;;;15.44;83.45
10008;BME280;5043;41.766;26.204;2023-09-30T04:58:57;101115.88;;;15.55;82.85
10008;BME280;5043;41.766;26.204;2023-09-30T05:01:24;101119.59;;;15.63;82.74
10008;BME280;5043;41.766;26.204;2023-09-30T05:03:50;101139.16;;;15.62;82.57
10008;BME280;5043;41.766;26.204;2023-09-30T05:06:15;101111.06;;;15.69;82.40
10008;BME280;5043;41.766;26.204;2023-09-30T05:08:41;101133.50;;;15.76;82.57
10008;BME280;5043;41.766;26.204;2023-09-30T05:11:07;101103.22;;;15.68;82.68
10008;BME280;5043;41.766;26.204;2023-09-30T05:13:32;101117.44;;;15.88;81.98
10008;BME280;5043;41.766;26.204;2023-09-30T05:15:59;101131.63;;;15.98;81.72
10008;BME280;5043;41.766;26.204;2023-09-30T05:18:24;101115.41;;;16.01;81.72
10008;BME280;5043;41.766;26.204;2023-09-30T05:20:50;101123.28;;;16.12;81.40
10008;BME280;5043;41.766;26.204;2023-09-30T05:23:15;101125.28;;;16.19;81.16
10008;BME280;5043;41.766;26.204;2023-09-30T05:25:41;101128.06;;;16.27;80.93
10008;BME280;5043;41.766;26.204;2023-09-30T05:28:08;101122.19;;;16.24;80.83
10008;BME280;5043;41.766;26.204;2023-09-30T05:30:34;101134.13;;;16.39;80.52
10008;BME280;5043;41.766;26.204;2023-09-30T05:33:00;101108.63;;;16.36;80.25
10008;BME280;5043;41.766;26.204;2023-09-30T05:35:26;101117.19;;;16.49;80.18
10008;BME280;5043;41.766;26.204;2023-09-30T05:37:53;101123.97;;;16.63;80.30
10008;BME280;5043;41.766;26.204;2023-09-30T05:40:20;101128.88;;;16.68;79.77
10008;BME280;5043;41.766;26.204;2023-09-30T05:42:54;101129.91;;;16.76;79.74
10008;BME280;5043;41.766;26.204;2023-09-30T05:45:23;101132.53;;;16.95;79.21
10008;BME280;5043;41.766;26.204;2023-09-30T05:47:49;101114.31;;;17.00;78.78
10008;BME280;5043;41.766;26.204;2023-09-30T05:50:14;101133.81;;;17.20;78.27
10008;BME280;5043;41.766;26.204;2023-09-30T05:52:42;101087.91;;;17.07;77.86
10008;BME280;5043;41.766;26.204;2023-09-30T05:55:08;101130.25;;;17.39;77.23
10008;BME280;5043;41.766;26.204;2023-09-30T05:57:34;101139.22;;;17.57;77.35
10008;BME280;5043;41.766;26.204;2023-09-30T06:00:00;101119.41;;;17.69;76.78
10008;BME280;5043;41.766;26.204;2023-09-30T06:02:26;101127.44;;;17.96;76.19
10008;BME280;5043;41.766;26.204;2023-09-30T06:04:51;101125.41;;;18.08;75.16
10008;BME280;5043;41.766;26.204;2023-09-30T06:07:19;101138.22;;;18.31;74.60
10008;BME280;5043;41.766;26.204;2023-09-30T06:09:45;101137.75;;;18.45;73.57
10008;BME280;5043;41.766;26.204;2023-09-30T06:12:13;101120.44;;;18.49;72.58
10008;BME280;5043;41.766;26.204;2023-09-30T06:14:39;101135.34;;;18.70;71.95
10008;BME280;5043;41.766;26.204;2023-09-30T06:17:06;101129.75;;;18.81;70.79
10008;BME280;5043;41.766;26.204;2023-09-30T06:19:31;101136.03;;;19.07;69.27
10008;BME280;5043;41.766;26.204;2023-09-30T06:21:57;101130.69;;;19.07;68.67
10008;BME280;5043;41.766;26.204;2023-09-30T06:24:22;101136.38;;;19.30;67.73
10008;BME280;5043;41.766;26.204;2023-09-30T06:26:49;101115.22;;;19.36;67.64
10008;BME280;5043;41.766;26.204;2023-09-30T06:29:14;101125.41;;;19.58;66.62
10008;BME280;5043;41.766;26.204;2023-09-30T06:31:40;101145.66;;;19.86;65.98
10008;BME280;5043;41.766;26.204;2023-09-30T06:34:05;101143.78;;;20.13;63.86
10008;BME280;5043;41.766;26.204;2023-09-30T06:36:32;101120.66;;;20.12;63.67
10008;BME280;5043;41.766;26.204;2023-09-30T06:38:58;101141.19;;;20.29;61.02
10008;BME280;5043;41.766;26.204;2023-09-30T06:41:24;101138.59;;;20.53;59.25
10008;BME280;5043;41.766;26.204;2023-09-30T06:43:50;101134.25;;;20.60;57.40
10008;BME280;5043;41.766;26.204;2023-09-30T06:46:17;101142.69;;;20.81;56.42
10008;BME280;5043;41.766;26.204;2023-09-30T06:48:42;101147.09;;;21.06;54.16
10008;BME280;5043;41.766;26.204;2023-09-30T06:51:15;101142.06;;;21.28;53.21
10008;BME280;5043;41.766;26.204;2023-09-30T06:53:41;101121.91;;;21.32;50.42
10008;BME280;5043;41.766;26.204;2023-09-30T06:56:06;101137.31;;;21.62;50.10
10008;BME280;5043;41.766;26.204;2023-09-30T06:58:32;101141.63;;;21.79;47.77
10008;BME280;5043;41.766;26.204;2023-09-30T07:00:58;101142.78;;;22.01;46.92
10008;BME280;5043;41.766;26.204;2023-09-30T07:03:23;101136.50;;;22.16;46.30
10008;BME280;5043;41.766;26.204;2023-09-30T07:05:49;101143.63;;;22.40;46.27
10008;BME280;5043;41.766;26.204;2023-09-30T07:08:16;101143.38;;;22.57;46.09
10008;BME280;5043;41.766;26.204;2023-09-30T07:10:42;101131.38;;;22.68;45.02
10008;BME280;5043;41.766;26.204;2023-09-30T07:13:07;101149.22;;;22.92;43.89
10008;BME280;5043;41.766;26.204;2023-09-30T07:15:33;101163.06;;;23.11;43.32
10008;BME280;5043;41.766;26.204;2023-09-30T07:17:59;101135.53;;;23.01;42.48
10008;BME280;5043;41.766;26.204;2023-09-30T07:20:24;101136.91;;;22.97;42.76
10008;BME280;5043;41.766;26.204;2023-09-30T07:22:50;101146.16;;;23.17;42.36
10008;BME280;5043;41.766;26.204;2023-09-30T07:25:16;101144.31;;;23.41;42.12
10008;BME280;5043;41.766;26.204;2023-09-30T07:27:45;101135.91;;;23.58;41.01
10008;BME280;5043;41.766;26.204;2023-09-30T07:30:12;101129.22;;;23.69;39.88
10008;BME280;5043;41.766;26.204;2023-09-30T07:32:41;101144.44;;;24.06;38.36
10008;BME280;5043;41.766;26.204;2023-09-30T07:35:07;101135.94;;;24.17;37.62
10008;BME280;5043;41.766;26.204;2023-09-30T07:37:33;101134.72;;;24.19;37.30
10008;BME280;5043;41.766;26.204;2023-09-30T07:39:58;101139.84;;;24.29;36.81
10008;BME280;5043;41.766;26.204;2023-09-30T07:42:24;101143.44;;;24.36;36.35
10008;BME280;5043;41.766;26.204;2023-09-30T07:44:50;101127.00;;;24.31;36.20
10008;BME280;5043;41.766;26.204;2023-09-30T07:47:16;101132.53;;;24.44;36.37
10008;BME280;5043;41.766;26.204;2023-09-30T07:49:41;101148.50;;;24.60;35.67
10008;BME280;5043;41.766;26.204;2023-09-30T07:52:06;101138.81;;;24.66;35.84
10008;BME280;5043;41.766;26.204;2023-09-30T07:54:32;101144.63;;;24.69;36.01
10008;BME280;5043;41.766;26.204;2023-09-30T07:56:58;101138.06;;;24.93;35.21
10008;BME280;5043;41.766;26.204;2023-09-30T07:59:24;101141.41;;;24.95;34.79
10008;BME280;5043;41.766;26.204;2023-09-30T08:01:50;101130.75;;;24.87;34.85
10008;BME280;5043;41.766;26.204;2023-09-30T08:04:17;101131.84;;;24.92;34.74
10008;BME280;5043;41.766;26.204;2023-09-30T08:06:43;101146.13;;;25.07;34.85
10008;BME280;5043;41.766;26.204;2023-09-30T08:09:08;101130.44;;;25.17;34.73
10008;BME280;5043;41.766;26.204;2023-09-30T08:11:36;101136.38;;;25.34;34.76
10008;BME280;5043;41.766;26.204;2023-09-30T08:14:05;101136.16;;;25.57;35.09
10008;BME280;5043;41.766;26.204;2023-09-30T08:16:36;101139.19;;;25.75;35.05
10008;BME280;5043;41.766;26.204;2023-09-30T08:19:02;101139.13;;;25.96;34.04
10008;BME280;5043;41.766;26.204;2023-09-30T08:21:29;101121.25;;;25.95;33.19
10008;BME280;5043;41.766;26.204;2023-09-30T08:23:55;101129.06;;;26.11;32.55
10008;BME280;5043;41.766;26.204;2023-09-30T08:26:20;101109.47;;;25.75;32.60
10008;BME280;5043;41.766;26.204;2023-09-30T08:28:46;101125.88;;;26.08;32.82
10008;BME280;5043;41.766;26.204;2023-09-30T08:31:11;101120.38;;;26.35;32.76
10008;BME280;5043;41.766;26.204;2023-09-30T08:33:37;101126.84;;;26.34;32.68
10008;BME280;5043;41.766;26.204;2023-09-30T08:36:05;101137.28;;;26.37;32.50
10008;BME280;5043;41.766;26.204;2023-09-30T08:38:38;101129.03;;;26.65;32.32
10008;BME280;5043;41.766;26.204;2023-09-30T08:41:05;101124.63;;;26.51;32.23
10008;BME280;5043;41.766;26.204;2023-09-30T08:43:31;101130.34;;;26.76;32.29
10008;BME280;5043;41.766;26.204;2023-09-30T08:46:00;101077.22;;;26.75;32.11
10008;BME280;5043;41.766;26.204;2023-09-30T08:49:21;101131.47;;;27.66;30.46
10008;BME280;5043;41.766;26.204;2023-09-30T08:51:48;101124.94;;;27.74;29.41
10008;BME280;5043;41.766;26.204;2023-09-30T08:54:14;101128.88;;;27.91;29.18
10008;BME280;5043;41.766;26.204;2023-09-30T08:56:40;101132.22;;;27.93;29.27
10008;BME280;5043;41.766;26.204;2023-09-30T08:59:11;101080.13;;;27.65;29.44
10008;BME280;5043;41.766;26.204;2023-09-30T09:01:37;101093.63;;;27.91;28.74
10008;BME280;5043;41.766;26.204;2023-09-30T09:04:06;101105.22;;;28.24;29.03
10008;BME280;5043;41.766;26.204;2023-09-30T09:06:32;101118.00;;;28.55;28.92
10008;BME280;5043;41.766;26.204;2023-09-30T09:09:18;101113.31;;;28.75;27.55
10008;BME280;5043;41.766;26.204;2023-09-30T09:11:45;101100.09;;;28.85;26.91
10008;BME280;5043;41.766;26.204;2023-09-30T09:14:10;101107.16;;;28.86;27.49
10008;BME280;5043;41.766;26.204;2023-09-30T09:16:36;101103.94;;;29.02;25.85
10008;BME280;5043;41.766;26.204;2023-09-30T09:19:14;101113.28;;;29.38;24.80
10008;BME280;5043;41.766;26.204;2023-09-30T09:21:58;101110.00;;;29.72;24.52
10008;BME280;5043;41.766;26.204;2023-09-30T09:24:35;101090.13;;;29.71;23.73
10008;BME280;5043;41.766;26.204;2023-09-30T09:27:08;101080.91;;;29.72;24.14
10008;BME280;5043;41.766;26.204;2023-09-30T09:29:35;101087.91;;;29.86;23.31
10008;BME280;5043;41.766;26.204;2023-09-30T09:32:17;101083.38;;;29.99;23.55
10008;BME280;5043;41.766;26.204;2023-09-30T09:34:45;101078.28;;;30.02;23.83
10008;BME280;5043;41.766;26.204;2023-09-30T09:37:15;101084.88;;;29.94;23.96
10008;BME280;5043;41.766;26.204;2023-09-30T09:39:55;101073.28;;;30.35;23.90
10008;BME280;5043;41.766;26.204;2023-09-30T09:42:30;101066.59;;;30.49;22.79
10008;BME280;5043;41.766;26.204;2023-09-30T09:45:03;101074.19;;;30.59;22.70
10008;BME280;5043;41.766;26.204;2023-09-30T09:47:31;101046.22;;;30.52;23.14
10008;BME280;5043;41.766;26.204;2023-09-30T09:49:58;101054.56;;;30.69;23.77
10008;BME280;5043;41.766;26.204;2023-09-30T09:52:24;101050.91;;;30.86;23.61
10008;BME280;5043;41.766;26.204;2023-09-30T09:54:50;101037.69;;;31.13;22.76
10008;BME280;5043;41.766;26.204;2023-09-30T09:57:17;101059.63;;;31.41;22.79
10008;BME280;5043;41.766;26.204;2023-09-30T09:59:44;101059.78;;;31.46;23.52
10008;BME280;5043;41.766;26.204;2023-09-30T10:02:15;101049.06;;;31.33;23.04
10008;BME280;5043;41.766;26.204;2023-09-30T10:04:45;101039.13;;;31.04;23.58
10008;BME280;5043;41.766;26.204;2023-09-30T10:07:19;101037.91;;;30.88;24.28
10008;BME280;5043;41.766;26.204;2023-09-30T10:09:49;101068.44;;;30.79;23.86
10008;BME280;5043;41.766;26.204;2023-09-30T10:12:16;101047.19;;;30.99;23.40
10008;BME280;5043;41.766;26.204;2023-09-30T10:14:42;101010.91;;;30.98;23.37
10008;BME280;5043;41.766;26.204;2023-09-30T10:17:07;101032.38;;;31.18;23.28
10008;BME280;5043;41.766;26.204;2023-09-30T10:19:33;101025.59;;;31.32;23.30
10008;BME280;5043;41.766;26.204;2023-09-30T10:24:46;101033.19;;;31.65;23.37
10008;BME280;5043;41.766;26.204;2023-09-30T10:30:08;101034.16;;;31.47;22.73
10008;BME280;5043;41.766;26.204;2023-09-30T10:40:47;101011.91;;;32.18;22.39
10008;BME280;5043;41.766;26.204;2023-09-30T10:43:32;101018.09;;;32.42;22.20
10008;BME280;5043;41.766;26.204;2023-09-30T10:45:59;101015.00;;;32.83;22.19
10008;BME280;5043;41.766;26.204;2023-09-30T10:50:51;101012.22;;;32.50;21.75
10008;BME280;5043;41.766;26.204;2023-09-30T10:53:18;101015.72;;;32.62;21.82
10008;BME280;5043;41.766;26.204;2023-09-30T10:55:46;101004.72;;;32.90;22.01
10008;BME280;5043;41.766;26.204;2023-09-30T10:58:15;101021.69;;;33.25;21.83
10008;BME280;5043;41.766;26.204;2023-09-30T11:00:54;101020.44;;;33.33;21.73
10008;BME280;5043;41.766;26.204;2023-09-30T11:03:23;101016.47;;;32.74;22.13
10008;BME280;5043;41.766;26.204;2023-09-30T11:05:48;101008.19;;;32.69;22.31
10008;BME280;5043;41.766;26.204;2023-09-30T11:08:15;100998.41;;;32.90;22.10
10008;BME280;5043;41.766;26.204;2023-09-30T11:10:52;101009.13;;;33.24;21.61
10008;BME280;5043;41.766;26.204;2023-09-30T11:13:19;101003.00;;;33.17;21.27
10008;BME280;5043;41.766;26.204;2023-09-30T11:15:45;101002.34;;;33.10;21.15
10008;BME280;5043;41.766;26.204;2023-09-30T11:18:15;100996.34;;;32.80;21.86
10008;BME280;5043;41.766;26.204;2023-09-30T11:20:42;100999.41;;;32.67;21.66
10008;BME280;5043;41.766;26.204;2023-09-30T11:23:08;100991.31;;;32.72;22.21
10008;BME280;5043;41.766;26.204;2023-09-30T11:25:38;100985.59;;;32.45;22.54
10008;BME280;5043;41.766;26.204;2023-09-30T11:28:15;100987.47;;;32.73;22.00
10008;BME280;5043;41.766;26.204;2023-09-30T11:30:58;100992.88;;;33.40;21.24
10008;BME280;5043;41.766;26.204;2023-09-30T11:33:25;101000.06;;;33.84;20.94
10008;BME280;5043;41.766;26.204;2023-09-30T11:36:04;100986.97;;;33.26;21.34
10008;BME280;5043;41.766;26.204;2023-09-30T11:38:31;100943.38;;;33.19;21.08
10008;BME280;5043;41.766;26.204;2023-09-30T11:41:06;100988.13;;;33.52;20.75
10008;BME280;5043;41.766;26.204;2023-09-30T11:43:34;100987.81;;;34.13;20.19
10008;BME280;5043;41.766;26.204;2023-09-30T11:46:04;100958.63;;;34.29;20.25
10008;BME280;5043;41.766;26.204;2023-09-30T11:48:31;100969.06;;;34.53;19.37
10008;BME280;5043;41.766;26.204;2023-09-30T11:50:59;100990.97;;;34.27;19.95
10008;BME280;5043;41.766;26.204;2023-09-30T11:53:28;100941.69;;;33.83;20.09
10008;BME280;5043;41.766;26.204;2023-09-30T11:55:58;100972.50;;;34.49;19.08
10008;BME280;5043;41.766;26.204;2023-09-30T11:58:27;100963.34;;;35.44;18.71
10008;BME280;5043;41.766;26.204;2023-09-30T12:00:57;100959.78;;;36.40;17.63
10008;BME280;5043;41.766;26.204;2023-09-30T12:03:23;100953.94;;;37.92;16.41
10008;BME280;5043;41.766;26.204;2023-09-30T12:05:49;100945.38;;;39.47;15.53
10008;BME280;5043;41.766;26.204;2023-09-30T12:08:14;100944.69;;;40.34;14.80
10008;BME280;5043;41.766;26.204;2023-09-30T12:10:40;100936.94;;;40.82;13.73
10008;BME280;5043;41.766;26.204;2023-09-30T12:13:06;100930.47;;;41.33;13.15
10008;BME280;5043;41.766;26.204;2023-09-30T12:15:31;100939.63;;;40.87;13.60
10008;BME280;5043;41.766;26.204;2023-09-30T12:17:56;100943.03;;;41.66;13.17
10008;BME280;5043;41.766;26.204;2023-09-30T12:20:22;100907.31;;;42.00;12.70
10008;BME280;5043;41.766;26.204;2023-09-30T12:22:48;100929.94;;;41.94;12.89
10008;BME280;5043;41.766;26.204;2023-09-30T12:25:14;100920.53;;;42.39;12.71
10008;BME280;5043;41.766;26.204;2023-09-30T12:27:40;100917.81;;;42.78;12.62
10008;BME280;5043;41.766;26.204;2023-09-30T12:30:06;100930.63;;;42.88;12.29
10008;BME280;5043;41.766;26.204;2023-09-30T12:32:32;100918.41;;;43.37;12.26
10008;BME280;5043;41.766;26.204;2023-09-30T12:34:57;100924.38;;;44.29;11.82
10008;BME280;5043;41.766;26.204;2023-09-30T12:37:23;100928.91;;;44.68;11.49
10008;BME280;5043;41.766;26.204;2023-09-30T12:39:48;100912.28;;;44.89;10.90
10008;BME280;5043;41.766;26.204;2023-09-30T12:42:14;100918.34;;;44.19;11.48
10008;BME280;5043;41.766;26.204;2023-09-30T12:44:41;100930.16;;;44.79;10.87
10008;BME280;5043;41.766;26.204;2023-09-30T12:47:06;100917.44;;;43.50;11.43
10008;BME280;5043;41.766;26.204;2023-09-30T12:49:32;100921.47;;;42.57;12.05
10008;BME280;5043;41.766;26.204;2023-09-30T12:51:57;100905.16;;;42.64;12.01
10008;BME280;5043;41.766;26.204;2023-09-30T12:54:26;100906.38;;;43.10;11.69
10008;BME280;5043;41.766;26.204;2023-09-30T12:56:52;100912.91;;;42.75;12.21
10008;BME280;5043;41.766;26.204;2023-09-30T12:59:17;100911.97;;;43.28;11.34
10008;BME280;5043;41.766;26.204;2023-09-30T13:01:43;100905.22;;;43.77;11.19
10008;BME280;5043;41.766;26.204;2023-09-30T13:04:09;100894.25;;;43.97;11.22
10008;BME280;5043;41.766;26.204;2023-09-30T13:06:35;100901.31;;;44.12;11.02